createdAt,value
2019-03-15T00:01:45.388Z,7.97
2019-03-15T00:04:13.837Z,10.73
2019-03-15T00:06:42.272Z,6.75
2019-03-15T00:09:10.683Z,9.75
2019-03-15T00:11:39.176Z,9.33
2019-03-15T00:14:07.628Z,5.60
2019-03-15T00:16:36.128Z,7.70
2019-03-15T00:19:04.632Z,5.92
2019-03-15T00:21:33.048Z,5.70
2019-03-15T00:24:01.473Z,5.33
2019-03-15T00:26:29.901Z,9.50
2019-03-15T00:28:58.330Z,5.22
2019-03-15T00:31:26.752Z,5.95
2019-03-15T00:33:55.165Z,9.65
2019-03-15T00:36:23.621Z,6.70
2019-03-15T00:38:52.039Z,7.87
2019-03-15T00:41:20.469Z,6.08
2019-03-15T00:43:49.524Z,6.47
2019-03-15T00:46:18.293Z,5.53
2019-03-15T00:48:46.718Z,5.92
2019-03-15T00:51:15.165Z,6.85
2019-03-15T00:53:43.642Z,7.20
2019-03-15T00:56:12.330Z,6.92
2019-03-15T00:58:40.756Z,6.65
2019-03-15T01:01:09.548Z,6.22
2019-03-15T01:03:38.044Z,4.90
2019-03-15T01:06:06.480Z,8.68
2019-03-15T01:08:34.904Z,4.85
2019-03-15T01:11:03.328Z,7.87
2019-03-15T01:13:31.747Z,6.85
2019-03-15T01:16:00.186Z,6.47
2019-03-15T01:18:28.602Z,5.58
2019-03-15T01:20:57.351Z,7.13
2019-03-15T01:23:25.837Z,5.03
2019-03-15T01:25:54.387Z,5.70
2019-03-15T01:28:23.059Z,6.47
2019-03-15T01:30:51.586Z,5.87
2019-03-15T01:33:20.002Z,4.70
2019-03-15T01:35:48.428Z,7.00
2019-03-15T01:38:16.852Z,9.50
2019-03-15T01:40:48.504Z,6.67
2019-03-15T01:43:15.420Z,6.15
2019-03-15T01:45:43.857Z,10.15
2019-03-15T01:48:12.288Z,6.70
2019-03-15T01:50:40.700Z,7.67
2019-03-15T01:53:09.139Z,4.70
2019-03-15T01:55:37.565Z,10.07
2019-03-15T01:58:05.991Z,6.78
2019-03-15T02:00:34.401Z,8.15
2019-03-15T02:03:03.145Z,8.33
2019-03-15T02:05:31.632Z,7.20
2019-03-15T02:08:00.641Z,10.03
2019-03-15T02:10:29.357Z,12.30
2019-03-15T02:12:57.796Z,10.60
2019-03-15T02:15:26.216Z,8.63
2019-03-15T02:17:54.650Z,8.40
2019-03-15T02:20:23.077Z,8.18
2019-03-15T02:22:51.571Z,6.05
2019-03-15T02:25:19.995Z,6.45
2019-03-15T02:27:48.424Z,7.67
2019-03-15T02:30:16.845Z,7.97
2019-03-15T02:32:45.269Z,5.70
2019-03-15T02:35:13.693Z,7.97
2019-03-15T02:37:42.176Z,10.63
2019-03-15T02:40:10.658Z,7.20
2019-03-15T02:42:39.086Z,6.75
2019-03-15T02:45:07.568Z,8.08
2019-03-15T02:47:36.002Z,7.62
2019-03-15T02:50:06.165Z,8.45
2019-03-15T02:52:34.585Z,10.90
2019-03-15T02:55:03.183Z,11.03
2019-03-15T02:57:31.606Z,9.03
2019-03-15T03:00:00.052Z,7.62
2019-03-15T03:02:28.824Z,8.27
2019-03-15T03:04:57.241Z,10.63
2019-03-15T03:07:25.673Z,8.85
2019-03-15T03:09:54.092Z,8.60
2019-03-15T03:12:22.536Z,6.42
2019-03-15T03:14:50.984Z,7.15
2019-03-15T03:17:19.405Z,6.42
2019-03-15T03:19:47.826Z,6.67
2019-03-15T03:22:16.283Z,11.05
2019-03-15T03:24:44.752Z,7.70
2019-03-15T03:27:13.192Z,8.40
2019-03-15T03:29:41.618Z,8.23
2019-03-15T03:32:10.089Z,6.28
2019-03-15T03:34:40.434Z,10.95
2019-03-15T03:37:08.676Z,5.70
2019-03-15T03:39:37.108Z,7.03
2019-03-15T03:42:05.604Z,7.20
2019-03-15T03:44:34.021Z,7.33
2019-03-15T03:47:02.465Z,6.33
2019-03-15T03:49:30.904Z,6.85
2019-03-15T03:51:59.322Z,9.80
2019-03-15T03:54:27.756Z,8.83
2019-03-15T03:56:56.361Z,6.63
2019-03-15T03:59:24.790Z,8.58
2019-03-15T04:01:53.213Z,8.77
2019-03-15T04:04:21.674Z,7.95
2019-03-15T04:06:50.144Z,7.62
2019-03-15T04:09:18.580Z,9.90
2019-03-15T04:11:55.182Z,6.30
2019-03-15T04:14:17.415Z,9.20
2019-03-15T04:16:45.850Z,10.10
2019-03-15T04:19:14.273Z,7.42
2019-03-15T04:21:42.688Z,8.63
2019-03-15T04:24:12.178Z,9.13
2019-03-15T04:26:40.708Z,10.48
2019-03-15T04:29:09.134Z,10.70
2019-03-15T04:31:40.216Z,14.63
2019-03-15T04:34:08.648Z,15.35
2019-03-15T04:36:37.077Z,13.03
2019-03-15T04:39:07.145Z,13.98
2019-03-15T04:41:35.570Z,10.23
2019-03-15T04:44:04.005Z,14.00
2019-03-15T04:46:32.437Z,15.58
2019-03-15T04:49:00.861Z,16.65
2019-03-15T04:51:29.345Z,17.00
2019-03-15T04:53:57.776Z,19.98
2019-03-15T04:56:26.201Z,17.40
2019-03-15T04:58:54.641Z,20.40
2019-03-15T05:01:23.367Z,20.65
2019-03-15T05:03:51.780Z,21.23
2019-03-15T05:06:20.247Z,24.80
2019-03-15T05:08:48.681Z,19.00
2019-03-15T05:11:17.113Z,22.40
2019-03-15T05:13:45.534Z,17.05
2019-03-15T05:16:13.963Z,18.73
2019-03-15T05:18:42.380Z,14.77
2019-03-15T05:21:10.819Z,21.77
2019-03-15T05:23:39.240Z,19.77
2019-03-15T05:26:07.745Z,16.45
2019-03-15T05:28:36.165Z,17.65
2019-03-15T05:31:04.603Z,19.30
2019-03-15T05:33:33.033Z,17.90
2019-03-15T05:36:01.472Z,18.37
2019-03-15T05:38:29.900Z,18.25
2019-03-15T05:40:58.329Z,18.30
2019-03-15T05:43:26.752Z,17.85
2019-03-15T05:45:55.190Z,18.37
2019-03-15T05:48:23.608Z,18.77
2019-03-15T05:50:52.037Z,22.75
2019-03-15T05:53:20.470Z,18.48
2019-03-15T05:55:48.913Z,21.48
2019-03-15T05:58:17.329Z,23.85
2019-03-15T06:00:45.774Z,13.18
2019-03-15T06:03:14.197Z,15.93
2019-03-15T06:05:42.917Z,20.27
2019-03-15T06:08:11.344Z,17.65
2019-03-15T06:10:39.778Z,14.68
2019-03-15T06:13:08.205Z,21.25
2019-03-15T06:15:36.627Z,18.35
2019-03-15T06:18:06.808Z,18.20
2019-03-15T06:20:35.195Z,19.05
2019-03-15T06:23:03.621Z,21.65
2019-03-15T06:25:32.059Z,21.75
2019-03-15T06:28:00.747Z,22.40
2019-03-15T06:30:29.183Z,18.55
2019-03-15T06:32:57.633Z,22.62
2019-03-15T06:35:26.085Z,21.45
2019-03-15T06:37:54.524Z,13.70
2019-03-15T06:40:23.016Z,21.07
2019-03-15T06:42:51.477Z,23.12
2019-03-15T06:45:19.999Z,20.00
2019-03-15T06:47:48.482Z,22.37
2019-03-15T06:50:16.910Z,18.62
2019-03-15T06:52:45.371Z,17.98
2019-03-15T06:55:13.877Z,20.08
2019-03-15T06:57:42.317Z,18.70
2019-03-15T07:00:13.853Z,23.40
2019-03-15T07:02:42.293Z,22.50
2019-03-15T07:05:12.286Z,15.50
2019-03-15T07:07:41.074Z,21.17
2019-03-15T07:10:10.852Z,18.75
2019-03-15T07:12:40.410Z,14.70
2019-03-15T07:15:11.241Z,17.90
2019-03-15T07:17:39.719Z,18.40
2019-03-15T07:20:15.649Z,18.60
2019-03-15T07:22:44.082Z,21.60
2019-03-15T07:25:12.589Z,19.02
2019-03-15T07:27:42.678Z,16.55
2019-03-15T07:30:13.057Z,18.27
2019-03-15T07:32:41.488Z,17.45
2019-03-15T07:35:10.266Z,17.40
2019-03-15T07:37:38.712Z,17.20
2019-03-15T07:40:09.822Z,16.05
2019-03-15T07:42:38.558Z,19.65
2019-03-15T07:45:09.539Z,17.50
2019-03-15T07:47:38.895Z,22.17
2019-03-15T07:50:13.910Z,18.52
2019-03-15T07:52:40.895Z,19.53
2019-03-15T07:55:09.977Z,16.90
2019-03-15T07:57:38.415Z,17.57
2019-03-15T08:00:14.485Z,18.57
2019-03-15T08:02:42.909Z,17.75
2019-03-15T08:05:11.351Z,15.83
2019-03-15T08:07:45.395Z,18.10
2019-03-15T08:10:11.463Z,17.57
2019-03-15T08:12:39.904Z,17.77
2019-03-15T08:15:10.194Z,18.65
2019-03-15T08:17:38.884Z,24.67
2019-03-15T08:20:10.650Z,18.70
2019-03-15T08:22:39.074Z,18.57
2019-03-15T08:25:09.583Z,17.80
2019-03-15T08:27:38.050Z,17.73
2019-03-15T08:30:18.955Z,15.77
2019-03-15T08:32:47.435Z,19.12
2019-03-15T08:35:15.857Z,16.52
2019-03-15T08:37:44.279Z,14.97
2019-03-15T08:40:13.782Z,15.40
2019-03-15T08:42:42.215Z,15.15
2019-03-15T08:45:21.135Z,18.37
2019-03-15T08:47:49.591Z,20.30
2019-03-15T08:50:20.105Z,15.48
2019-03-15T08:52:48.631Z,16.62
2019-03-15T08:55:17.117Z,16.65
2019-03-15T08:57:46.026Z,19.73
2019-03-15T09:00:15.695Z,18.87
2019-03-15T09:02:44.171Z,16.57
2019-03-15T09:05:14.685Z,15.90
2019-03-15T09:07:43.251Z,18.35
2019-03-15T09:10:23.062Z,18.15
2019-03-15T09:12:46.681Z,15.55
2019-03-15T09:15:15.527Z,14.50
2019-03-15T09:17:43.980Z,18.82
2019-03-15T09:20:14.074Z,22.90
2019-03-15T09:22:42.556Z,19.05
2019-03-15T09:25:20.221Z,19.15
2019-03-15T09:27:48.449Z,19.48
2019-03-15T09:30:23.489Z,15.93
2019-03-15T09:32:48.257Z,15.95
2019-03-15T09:35:16.701Z,17.48
2019-03-15T09:37:47.274Z,16.20
2019-03-15T09:40:16.353Z,15.35
2019-03-15T09:42:44.804Z,16.60
2019-03-15T09:45:14.841Z,15.32
2019-03-15T09:47:43.381Z,17.60
2019-03-15T09:50:21.777Z,14.30
2019-03-15T09:52:44.256Z,15.50
2019-03-15T09:55:13.629Z,14.78
2019-03-15T09:57:42.072Z,16.02
2019-03-15T10:00:17.742Z,12.40
2019-03-15T10:02:46.305Z,14.70
2019-03-15T10:05:14.781Z,13.17
2019-03-15T10:07:44.054Z,14.38
2019-03-15T10:10:20.340Z,13.60
2019-03-15T10:12:48.866Z,12.73
2019-03-15T10:15:17.933Z,13.57
2019-03-15T10:17:46.374Z,9.60
2019-03-15T10:20:15.929Z,13.43
2019-03-15T10:22:44.374Z,11.80
2019-03-15T10:25:15.462Z,11.78
2019-03-15T10:27:43.908Z,10.98
2019-03-15T10:30:17.145Z,10.78
2019-03-15T10:32:45.664Z,13.62
2019-03-15T10:35:14.257Z,10.88
2019-03-15T10:37:42.685Z,16.17
2019-03-15T10:40:20.129Z,14.38
2019-03-15T10:42:49.443Z,14.37
2019-03-15T10:45:17.889Z,13.10
2019-03-15T10:47:46.311Z,14.58
2019-03-15T10:50:16.025Z,14.70
2019-03-15T10:52:44.459Z,14.90
2019-03-15T10:55:13.046Z,17.83
2019-03-15T10:57:41.543Z,16.03
2019-03-15T11:00:14.169Z,14.43
2019-03-15T11:02:42.610Z,15.80
2019-03-15T11:05:11.323Z,13.70
2019-03-15T11:07:39.755Z,13.18
2019-03-15T11:10:10.250Z,14.25
2019-03-15T11:12:38.681Z,14.35
2019-03-15T11:15:12.375Z,13.78
2019-03-15T11:17:40.801Z,11.57
2019-03-15T11:20:11.546Z,15.20
2019-03-15T11:22:39.993Z,15.55
2019-03-15T11:25:09.773Z,12.10
2019-03-15T11:27:38.221Z,15.25
2019-03-15T11:30:09.008Z,12.35
2019-03-15T11:32:37.513Z,15.18
2019-03-15T11:35:07.914Z,13.62
2019-03-15T11:37:36.342Z,14.80
2019-03-15T11:40:07.798Z,11.55
2019-03-15T11:42:36.237Z,14.50
2019-03-15T11:45:08.984Z,14.87
2019-03-15T11:48:00.618Z,17.00
2019-03-15T11:50:12.762Z,13.43
2019-03-15T11:52:41.268Z,14.30
2019-03-15T11:55:10.046Z,12.00
2019-03-15T11:57:38.567Z,11.95
2019-03-15T12:00:12.222Z,12.37
2019-03-15T12:02:40.653Z,9.35
2019-03-15T12:05:10.012Z,9.80
2019-03-15T12:07:39.717Z,10.15
2019-03-15T12:10:10.508Z,10.13
2019-03-15T12:12:38.970Z,11.70
2019-03-15T12:15:18.744Z,10.80
2019-03-15T12:17:47.285Z,9.03
2019-03-15T12:20:15.716Z,9.13
2019-03-15T12:22:44.158Z,9.50
2019-03-15T12:25:12.737Z,9.00
2019-03-15T12:27:41.156Z,8.33
2019-03-15T12:30:16.839Z,8.55
2019-03-15T12:32:45.269Z,9.73
2019-03-15T12:35:14.440Z,9.63
2019-03-15T12:37:42.878Z,9.15
2019-03-15T12:40:12.832Z,9.53
2019-03-15T12:42:41.265Z,9.03
2019-03-15T12:45:11.024Z,9.05
2019-03-15T12:47:39.469Z,9.30
2019-03-15T12:50:15.454Z,9.15
2019-03-15T12:52:48.274Z,8.03
2019-03-15T12:55:14.913Z,8.05
2019-03-15T12:57:43.362Z,9.45
2019-03-15T13:00:19.681Z,8.95
2019-03-15T13:02:48.201Z,8.05
2019-03-15T13:05:16.953Z,8.90
2019-03-15T13:07:45.382Z,8.38
2019-03-15T13:10:18.897Z,8.60
2019-03-15T13:12:47.338Z,8.40
2019-03-15T13:15:16.807Z,8.03
2019-03-15T13:17:45.437Z,7.05
2019-03-15T13:20:16.179Z,7.67
2019-03-15T13:22:44.664Z,6.60
2019-03-15T13:25:13.368Z,6.55
2019-03-15T13:27:41.784Z,5.70
2019-03-15T13:30:17.448Z,6.20
2019-03-15T13:32:46.230Z,4.87
2019-03-15T13:35:14.658Z,4.80
2019-03-15T13:37:43.504Z,4.40
2019-03-15T13:40:14.225Z,4.40
2019-03-15T13:42:42.734Z,5.08
2019-03-15T13:45:12.406Z,4.08
2019-03-15T13:47:40.832Z,4.67
2019-03-15T13:50:16.072Z,4.70
2019-03-15T13:52:44.491Z,6.12
2019-03-15T13:55:13.485Z,5.40
2019-03-15T13:57:41.917Z,4.25
2019-03-15T14:00:16.189Z,5.75
2019-03-15T14:02:44.613Z,8.67
2019-03-15T14:05:13.123Z,5.35
2019-03-15T14:07:41.561Z,5.03
2019-03-15T14:10:14.297Z,5.37
2019-03-15T14:12:42.801Z,8.73
2019-03-15T14:15:17.122Z,8.40
2019-03-15T14:17:45.541Z,5.67
2019-03-15T14:20:14.151Z,4.72
2019-03-15T14:22:42.598Z,5.40
2019-03-15T14:25:23.230Z,4.75
2019-03-15T14:27:51.651Z,5.17
2019-03-15T14:30:20.092Z,5.93
2019-03-15T14:32:48.876Z,4.33
2019-03-15T14:35:17.308Z,5.33
2019-03-15T14:37:45.801Z,7.35
2019-03-15T14:40:14.269Z,5.25
2019-03-15T14:42:42.700Z,6.60
2019-03-15T14:45:12.673Z,5.90
2019-03-15T14:47:41.366Z,4.97
2019-03-15T14:50:11.710Z,8.03
2019-03-15T14:52:40.129Z,6.42
2019-03-15T14:55:12.397Z,5.30
2019-03-15T14:57:51.320Z,9.10
2019-03-15T15:00:14.035Z,6.07
2019-03-15T15:02:42.476Z,7.55
2019-03-15T15:05:12.226Z,8.08
2019-03-15T15:07:40.992Z,7.55
2019-03-15T15:10:16.899Z,11.55
2019-03-15T15:12:46.096Z,7.67
2019-03-15T15:15:16.806Z,7.87
2019-03-15T15:17:45.250Z,8.00
2019-03-15T15:20:13.883Z,11.38
2019-03-15T15:22:42.475Z,7.80
2019-03-15T15:25:11.958Z,9.63
2019-03-15T15:27:40.530Z,8.15
2019-03-15T15:30:11.568Z,8.55
2019-03-15T15:32:40.010Z,10.13
2019-03-15T15:35:10.287Z,9.10
2019-03-15T15:37:38.723Z,9.10
2019-03-15T15:40:16.137Z,7.85
2019-03-15T15:42:44.602Z,8.35
2019-03-15T15:45:13.477Z,6.58
2019-03-15T15:47:41.974Z,7.20
2019-03-15T15:50:14.458Z,7.05
2019-03-15T15:52:42.880Z,8.65
2019-03-15T15:55:15.119Z,6.78
2019-03-15T15:57:43.567Z,9.55
2019-03-15T16:00:16.194Z,9.60
2019-03-15T16:02:44.642Z,9.98
2019-03-15T16:05:13.623Z,10.48
2019-03-15T16:07:42.062Z,9.63
2019-03-15T16:10:17.357Z,10.10
2019-03-15T16:12:44.727Z,9.47
2019-03-15T16:15:14.963Z,8.25
2019-03-15T16:17:45.434Z,9.50
2019-03-15T16:20:13.850Z,8.90
2019-03-15T16:22:42.287Z,13.30
2019-03-15T16:25:11.590Z,11.30
2019-03-15T16:27:40.097Z,13.38
2019-03-15T16:30:16.338Z,11.40
2019-03-15T16:32:44.857Z,11.25
2019-03-15T16:35:15.370Z,10.47
2019-03-15T16:37:43.809Z,11.73
2019-03-15T16:40:14.319Z,10.98
2019-03-15T16:42:42.750Z,10.40
2019-03-15T16:45:17.218Z,10.72
2019-03-15T16:47:45.954Z,9.68
2019-03-15T16:50:14.515Z,11.60
2019-03-15T16:52:42.975Z,10.85
2019-03-15T16:55:12.259Z,11.50
2019-03-15T16:57:40.695Z,9.43
2019-03-15T17:00:15.012Z,11.80
2019-03-15T17:02:43.512Z,11.88
2019-03-15T17:05:13.331Z,11.38
2019-03-15T17:07:42.509Z,13.00
2019-03-15T17:10:15.359Z,9.10
2019-03-15T17:12:43.803Z,11.88
2019-03-15T17:15:14.765Z,10.75
2019-03-15T17:17:43.253Z,9.18
2019-03-15T17:20:12.590Z,8.93
2019-03-15T17:22:41.004Z,10.13
2019-03-15T17:25:11.362Z,12.70
2019-03-15T17:27:39.843Z,9.48
2019-03-15T17:30:13.001Z,13.65
2019-03-15T17:32:41.436Z,14.28
2019-03-15T17:35:12.320Z,12.33
2019-03-15T17:37:41.157Z,9.53
2019-03-15T17:40:19.651Z,12.85
2019-03-15T17:42:48.084Z,14.40
2019-03-15T17:45:16.538Z,14.13
2019-03-15T17:47:45.193Z,13.35
2019-03-15T17:50:19.626Z,15.55
2019-03-15T17:52:48.084Z,14.73
2019-03-15T17:55:17.703Z,11.90
2019-03-15T17:57:46.388Z,16.37
2019-03-15T18:00:30.356Z,12.40
2019-03-15T18:02:59.676Z,13.40
2019-03-15T18:05:28.114Z,10.80
2019-03-15T18:07:57.834Z,14.28
2019-03-15T18:13:15.182Z,14.53
2019-03-15T18:15:43.628Z,10.40
2019-03-15T18:18:12.047Z,12.33
2019-03-15T18:20:40.480Z,13.05
2019-03-15T18:23:08.919Z,14.23
2019-03-15T18:25:37.354Z,11.83
2019-03-15T18:28:05.870Z,11.50
2019-03-15T18:30:34.293Z,14.68
2019-03-15T18:33:02.820Z,11.85
2019-03-15T18:35:33.992Z,13.05
2019-03-15T18:38:01.425Z,15.25
2019-03-15T18:40:29.860Z,15.77
2019-03-15T18:42:58.297Z,13.70
2019-03-15T18:45:26.785Z,13.35
2019-03-15T18:47:55.241Z,15.05
2019-03-15T18:50:27.634Z,17.30
2019-03-15T18:52:56.204Z,13.30
2019-03-15T18:55:25.416Z,13.88
2019-03-15T18:57:54.162Z,14.15
2019-03-15T19:00:24.060Z,9.43
2019-03-15T19:02:53.829Z,14.73
2019-03-15T19:05:23.011Z,11.88
2019-03-15T19:07:51.833Z,12.27
2019-03-15T19:10:20.310Z,11.83
2019-03-15T19:12:48.743Z,11.43
2019-03-15T19:15:18.524Z,16.23
2019-03-15T19:17:46.954Z,16.90
2019-03-15T19:20:16.314Z,11.20
2019-03-15T19:22:45.185Z,13.40
2019-03-15T19:25:14.885Z,14.53
2019-03-15T19:27:43.361Z,13.98
2019-03-15T19:30:14.678Z,12.93
2019-03-15T19:32:43.266Z,13.90
2019-03-15T19:35:11.760Z,17.10
2019-03-15T19:37:40.273Z,12.43
2019-03-15T19:40:16.245Z,14.15
2019-03-15T19:42:45.621Z,12.40
2019-03-15T19:45:15.322Z,17.62
2019-03-15T19:47:43.904Z,14.98
2019-03-15T19:50:14.805Z,17.42
2019-03-15T19:52:43.269Z,13.43
2019-03-15T19:55:15.994Z,16.15
2019-03-15T19:57:44.465Z,11.95
2019-03-15T20:00:20.302Z,14.33
2019-03-15T20:02:49.789Z,14.75
2019-03-15T20:05:18.279Z,15.30
2019-03-15T20:07:46.865Z,14.55
2019-03-15T20:10:17.249Z,17.57
2019-03-15T20:12:46.059Z,16.95
2019-03-15T20:15:18.074Z,13.98
2019-03-15T20:17:46.531Z,13.58
2019-03-15T20:20:19.809Z,17.05
2019-03-15T20:22:48.250Z,12.43
2019-03-15T20:25:18.869Z,19.90
2019-03-15T20:27:47.330Z,15.95
2019-03-15T20:30:26.580Z,14.03
2019-03-15T20:32:54.077Z,16.90
2019-03-15T20:35:22.518Z,15.05
2019-03-15T20:37:50.965Z,19.00
2019-03-15T20:40:19.393Z,17.67
2019-03-15T20:42:47.828Z,14.00
2019-03-15T20:45:22.263Z,15.00
2019-03-15T20:47:50.680Z,13.98
2019-03-15T20:50:19.138Z,19.62
2019-03-15T20:52:47.566Z,19.12
2019-03-15T20:55:16.002Z,18.55
2019-03-15T20:57:44.429Z,14.25
2019-03-15T21:00:18.892Z,17.25
2019-03-15T21:02:47.793Z,17.60
2019-03-15T21:05:16.279Z,12.70
2019-03-15T21:07:44.773Z,18.80
2019-03-15T21:10:17.271Z,16.30
2019-03-15T21:12:45.812Z,16.23
2019-03-15T21:15:18.011Z,15.13
2019-03-15T21:17:46.462Z,14.80
2019-03-15T21:20:22.348Z,16.52
2019-03-15T21:22:49.880Z,14.58
2019-03-15T21:25:19.614Z,16.47
2019-03-15T21:27:53.988Z,16.00
2019-03-15T21:30:19.577Z,16.75
2019-03-15T21:32:48.038Z,18.80
2019-03-15T21:35:16.518Z,17.63
2019-03-15T21:37:44.988Z,15.53
2019-03-15T21:40:14.552Z,16.42
2019-03-15T21:42:42.974Z,18.12
2019-03-15T21:45:12.153Z,18.20
2019-03-15T21:47:40.613Z,14.00
2019-03-15T21:50:17.137Z,18.30
2019-03-15T21:52:45.584Z,16.25
2019-03-15T21:55:14.000Z,16.80
2019-03-15T21:57:42.429Z,15.98
2019-03-15T22:00:16.127Z,19.98
2019-03-15T22:02:44.569Z,17.70
2019-03-15T22:05:12.993Z,17.00
2019-03-15T22:07:41.502Z,16.52
2019-03-15T22:10:15.673Z,16.80
2019-03-15T22:12:44.406Z,14.03
2019-03-15T22:15:13.682Z,18.23
2019-03-15T22:17:42.183Z,15.57
2019-03-15T22:20:13.402Z,14.50
2019-03-15T22:22:41.893Z,20.95
2019-03-15T22:25:10.398Z,14.13
2019-03-15T22:27:40.042Z,14.73
2019-03-15T22:30:13.169Z,14.40
2019-03-15T22:32:41.613Z,17.12
2019-03-15T22:35:10.093Z,15.87
2019-03-15T22:37:38.672Z,15.80
2019-03-15T22:40:13.820Z,15.57
2019-03-15T22:42:42.336Z,19.48
2019-03-15T22:45:12.217Z,14.93
2019-03-15T22:47:40.656Z,19.73
2019-03-15T22:50:13.468Z,15.45
2019-03-15T22:52:42.001Z,15.67
2019-03-15T22:55:11.216Z,14.67
2019-03-15T22:57:39.661Z,18.98
2019-03-15T23:00:15.849Z,17.57
2019-03-15T23:02:44.582Z,19.60
2019-03-15T23:05:13.441Z,12.58
2019-03-15T23:07:41.898Z,18.32
2019-03-15T23:10:11.448Z,19.20
2019-03-15T23:12:39.880Z,16.77
2019-03-15T23:15:14.495Z,16.55
2019-03-15T23:17:42.938Z,14.20
2019-03-15T23:20:12.813Z,19.60
2019-03-15T23:22:41.268Z,17.32
2019-03-15T23:25:09.781Z,15.70
2019-03-15T23:27:38.485Z,17.17
2019-03-15T23:30:12.581Z,16.95
2019-03-15T23:32:41.001Z,13.22
2019-03-15T23:35:09.439Z,19.17
2019-03-15T23:37:37.869Z,14.47
2019-03-15T23:40:08.841Z,18.00
2019-03-15T23:42:37.308Z,15.20
2019-03-15T23:45:08.267Z,15.65
2019-03-15T23:47:36.723Z,14.00
2019-03-15T23:50:13.036Z,17.77
2019-03-15T23:52:41.541Z,17.75
2019-03-15T23:55:10.234Z,18.57
2019-03-15T23:57:38.683Z,18.67
